Time;durP1;ratioP1;P1;durP2;ratioP2;P2;SDS_P1;SDS_P2;PMS_P1;PMS_P2;Temp;Humidity;BMP_temperature;BMP_pressure;BME280_temperature;BME280_humidity;BME280_pressure;Samples;Min_cycle;Max_cycle;Signal;HPM_P1;HPM_P2
2023/05/18 00:01:18;;;;;;;;;;;6.70;99.90;;;;;;5105521;27;19942;-86
2023/05/18 00:03:43;;;;;;;;;;;6.80;99.90;;;;;;5096834;27;20098;-86
2023/05/18 00:06:09;;;;;;;;;;;6.80;99.90;;;;;;5104510;27;19976;-87
2023/05/18 00:08:35;;;;;;;;;;;6.70;99.90;;;;;;5097722;27;20014;-87
2023/05/18 00:11:02;;;;;;;;;;;6.60;99.90;;;;;;5102744;27;19968;-87
2023/05/18 00:13:28;;;;;;;;;;;6.60;99.90;;;;;;5103964;27;19927;-86
2023/05/18 00:15:53;;;;;;;;;;;6.50;99.90;;;;;;5101459;27;19930;-87
2023/05/18 00:18:28;;;;;;;;;;;6.40;99.90;;;;;;5103816;27;21135;-87
2023/05/18 00:21:00;;;;;;;;;;;6.70;99.90;;;;;;5099410;27;19931;-87
2023/05/18 00:23:28;;;;;;;;;;;6.70;99.90;;;;;;5084950;27;19932;-86
2023/05/18 00:25:56;;;;;;;;;;;6.60;99.90;;;;;;5086461;27;19931;-86
2023/05/18 00:28:22;;;;;;;;;;;6.50;99.90;;;;;;5082795;27;19984;-87
2023/05/18 00:30:47;;;;;;;;;;;6.40;99.90;;;;;;5104622;27;19931;-87
2023/05/18 00:33:13;;;;;;;;;;;6.50;99.90;;;;;;5103024;27;20001;-86
2023/05/18 00:35:39;;;;;;;;;;;6.40;99.90;;;;;;5102303;27;19935;-87
2023/05/18 00:38:04;;;;;;;;;;;6.30;99.90;;;;;;5083531;27;19956;-86
2023/05/18 00:40:30;;;;;;;;;;;6.30;99.90;;;;;;5085271;27;20407;-87
2023/05/18 00:42:55;;;;;;;;;;;6.20;99.90;;;;;;5100199;27;19924;-85
2023/05/18 00:45:21;;;;;;;;;;;6.20;99.90;;;;;;5083751;27;19928;-87
2023/05/18 00:47:47;;;;;;;;;;;6.30;99.90;;;;;;5086088;27;20384;-87
2023/05/18 00:50:12;;;;;;;;;;;6.40;99.90;;;;;;5086246;27;19939;-86
2023/05/18 00:52:38;;;;;;;;;;;6.30;99.90;;;;;;5102771;27;19927;-86
2023/05/18 00:55:04;;;;;;;;;;;6.30;99.90;;;;;;5101500;27;20346;-86
2023/05/18 00:57:32;;;;;;;;;;;6.30;99.90;;;;;;5103254;27;19931;-86
2023/05/18 00:59:59;;;;;;;;;;;6.20;99.90;;;;;;5080393;27;19927;-87
2023/05/18 01:02:28;;;;;;;;;;;6.20;99.90;;;;;;5102197;27;19923;-86
2023/05/18 01:04:55;;;;;;;;;;;6.20;99.90;;;;;;5103509;27;20003;-87
2023/05/18 01:07:21;;;;;;;;;;;6.20;99.90;;;;;;5092680;27;19989;-87
2023/05/18 01:09:47;;;;;;;;;;;6.10;99.90;;;;;;5086434;27;19927;-87
2023/05/18 01:12:31;;;;;;;;;;;6.30;99.90;;;;;;5089530;27;19934;-87
2023/05/18 01:15:13;;;;;;;;;;;6.20;99.90;;;;;;5099260;27;20582;-86
2023/05/18 01:17:59;;;;;;;;;;;6.10;99.90;;;;;;5104416;27;20018;-86
2023/05/18 01:20:44;;;;;;;;;;;6.00;99.90;;;;;;5102381;27;19931;-87
2023/05/18 01:23:10;;;;;;;;;;;6.00;99.90;;;;;;5086317;27;19949;-86
2023/05/18 01:25:49;;;;;;;;;;;6.00;99.90;;;;;;5081379;27;19932;-87
2023/05/18 01:28:16;;;;;;;;;;;6.10;99.90;;;;;;5102077;27;20544;-87
2023/05/18 01:30:42;;;;;;;;;;;6.20;99.90;;;;;;5102216;27;19965;-87
2023/05/18 01:33:08;;;;;;;;;;;6.10;99.90;;;;;;5100801;27;19935;-87
2023/05/18 01:35:37;;;;;;;;;;;6.10;99.90;;;;;;5101304;27;19931;-88
2023/05/18 01:38:03;;;;;;;;;;;6.20;99.90;;;;;;5086053;27;19927;-87
2023/05/18 01:40:32;;;;;;;;;;;6.10;99.90;;;;;;5085709;27;20014;-86
2023/05/18 01:43:00;;;;;;;;;;;6.10;99.90;;;;;;5104276;27;20407;-87
2023/05/18 01:45:27;;;;;;;;;;;6.20;99.90;;;;;;5101819;27;19932;-87
2023/05/18 01:47:55;;;;;;;;;;;5.90;99.90;;;;;;5102499;27;19931;-86
2023/05/18 01:50:25;;;;;;;;;;;5.90;99.90;;;;;;5103210;27;19971;-86
2023/05/18 01:52:53;;;;;;;;;;;6.00;99.90;;;;;;5103170;27;19924;-86
2023/05/18 01:55:19;;;;;;;;;;;5.90;99.90;;;;;;5103851;27;20269;-86
2023/05/18 01:57:47;;;;;;;;;;;6.00;99.90;;;;;;5099531;27;19923;-86
2023/05/18 02:00:15;;;;;;;;;;;6.00;99.90;;;;;;5102713;27;19975;-85
2023/05/18 02:02:41;;;;;;;;;;;5.90;99.90;;;;;;5103137;27;19938;-86
2023/05/18 02:05:11;;;;;;;;;;;5.90;99.90;;;;;;5100817;27;19927;-86
2023/05/18 02:07:42;;;;;;;;;;;5.90;99.90;;;;;;5100875;27;20339;-87
2023/05/18 02:10:08;;;;;;;;;;;5.80;99.90;;;;;;5100564;27;19928;-86
2023/05/18 02:12:34;;;;;;;;;;;5.70;99.90;;;;;;5098021;28;19934;-86
2023/05/18 02:15:04;;;;;;;;;;;5.70;99.90;;;;;;5102056;28;19927;-86
2023/05/18 02:17:33;;;;;;;;;;;5.60;99.90;;;;;;5105760;28;19932;-86
2023/05/18 02:19:58;;;;;;;;;;;5.60;99.90;;;;;;5104459;27;19980;-86
2023/05/18 02:22:24;;;;;;;;;;;5.60;99.90;;;;;;5093191;27;19927;-86
2023/05/18 02:24:50;;;;;;;;;;;5.60;99.90;;;;;;5108948;27;20418;-86
2023/05/18 02:27:16;;;;;;;;;;;5.60;99.90;;;;;;5088549;27;19931;-86
2023/05/18 02:29:41;;;;;;;;;;;5.70;99.90;;;;;;5090781;27;19928;-86
2023/05/18 02:32:07;;;;;;;;;;;5.70;99.90;;;;;;5106629;27;20068;-86
2023/05/18 02:34:34;;;;;;;;;;;5.70;99.90;;;;;;5105035;27;19934;-86
2023/05/18 02:37:02;;;;;;;;;;;5.70;99.90;;;;;;5091804;27;19931;-85
2023/05/18 02:39:28;;;;;;;;;;;5.70;99.90;;;;;;5108384;27;19927;-86
2023/05/18 02:41:54;;;;;;;;;;;5.60;99.90;;;;;;5109056;27;20636;-85
2023/05/18 02:44:19;;;;;;;;;;;5.60;99.90;;;;;;5090515;27;19923;-85
2023/05/18 02:46:45;;;;;;;;;;;5.50;99.90;;;;;;5108485;27;19934;-86
2023/05/18 02:49:11;;;;;;;;;;;5.40;99.90;;;;;;5109810;27;19927;-85
2023/05/18 02:51:36;;;;;;;;;;;5.40;99.90;;;;;;5110274;27;19928;-86
2023/05/18 02:54:02;;;;;;;;;;;5.30;99.90;;;;;;5092062;27;19924;-85
2023/05/18 02:56:27;;;;;;;;;;;5.30;99.90;;;;;;5108224;27;19931;-86
2023/05/18 02:58:56;;;;;;;;;;;5.50;99.90;;;;;;5104094;27;19923;-86
2023/05/18 03:01:25;;;;;;;;;;;5.30;99.90;;;;;;5107484;27;19927;-86
2023/05/18 03:03:56;;;;;;;;;;;5.30;99.90;;;;;;5090540;27;20660;-84
2023/05/18 03:06:25;;;;;;;;;;;5.10;99.90;;;;;;5107517;27;19927;-85
2023/05/18 03:08:53;;;;;;;;;;;5.10;99.90;;;;;;5091985;27;19927;-85
2023/05/18 03:11:20;;;;;;;;;;;5.10;99.90;;;;;;5108811;27;20072;-85
2023/05/18 03:13:46;;;;;;;;;;;5.00;99.90;;;;;;5091373;27;19934;-86
2023/05/18 03:16:12;;;;;;;;;;;5.10;99.90;;;;;;5108499;27;19927;-85
2023/05/18 03:18:37;;;;;;;;;;;4.90;99.90;;;;;;5127348;27;19927;-86
2023/05/18 03:21:03;;;;;;;;;;;4.80;99.90;;;;;;5086433;27;20383;-85
2023/05/18 03:23:29;;;;;;;;;;;4.90;99.90;;;;;;5108722;27;19931;-86
2023/05/18 03:25:55;;;;;;;;;;;4.90;99.90;;;;;;5089459;27;20016;-86
2023/05/18 03:28:21;;;;;;;;;;;4.90;99.90;;;;;;5108703;27;19923;-86
2023/05/18 03:30:47;;;;;;;;;;;4.80;99.90;;;;;;5109261;27;19930;-81
2023/05/18 03:33:12;;;;;;;;;;;4.80;99.90;;;;;;5107991;27;19927;-84
2023/05/18 03:35:39;;;;;;;;;;;4.70;99.90;;;;;;5107501;27;19927;-86
2023/05/18 03:38:08;;;;;;;;;;;4.80;99.90;;;;;;5108386;27;20018;-85
2023/05/18 03:40:33;;;;;;;;;;;4.90;99.90;;;;;;5089796;27;20506;-84
2023/05/18 03:42:59;;;;;;;;;;;4.90;99.90;;;;;;5107738;27;20395;-85
2023/05/18 03:45:24;;;;;;;;;;;5.00;99.90;;;;;;5107721;27;20013;-85
2023/05/18 03:47:50;;;;;;;;;;;5.10;99.90;;;;;;5106547;27;19924;-85
2023/05/18 03:50:15;;;;;;;;;;;5.00;99.90;;;;;;5106417;27;19924;-85
2023/05/18 03:52:43;;;;;;;;;;;4.90;99.90;;;;;;5104971;27;19967;-85
2023/05/18 03:55:08;;;;;;;;;;;5.00;99.90;;;;;;5105334;27;19950;-85
2023/05/18 03:57:34;;;;;;;;;;;5.00;99.90;;;;;;5104580;27;20397;-85
2023/05/18 04:00:00;;;;;;;;;;;5.00;99.90;;;;;;5107935;27;19927;-84
2023/05/18 04:02:26;;;;;;;;;;;5.10;99.90;;;;;;5102306;27;19927;-85
2023/05/18 04:04:52;;;;;;;;;;;5.20;99.90;;;;;;5103965;27;19931;-85
2023/05/18 04:07:20;;;;;;;;;;;5.20;99.90;;;;;;5103548;27;20136;-86
2023/05/18 04:09:46;;;;;;;;;;;5.30;99.90;;;;;;5108211;27;19980;-86
2023/05/18 04:12:12;;;;;;;;;;;5.30;99.90;;;;;;5103865;27;19931;-85
2023/05/18 04:14:41;;;;;;;;;;;5.30;99.90;;;;;;5106059;27;19931;-86
2023/05/18 04:17:07;;;;;;;;;;;5.30;99.90;;;;;;5100934;27;19974;-87
2023/05/18 04:19:33;;;;;;;;;;;5.50;99.90;;;;;;5106401;27;19927;-85
2023/05/18 04:21:58;;;;;;;;;;;5.60;99.90;;;;;;5085668;27;19924;-86
2023/05/18 04:24:25;;;;;;;;;;;5.50;99.90;;;;;;5107467;27;19930;-86
2023/05/18 04:26:51;;;;;;;;;;;5.50;99.90;;;;;;5107389;27;19927;-86
2023/05/18 04:29:17;;;;;;;;;;;5.60;99.90;;;;;;5105806;27;20299;-84
2023/05/18 04:31:46;;;;;;;;;;;5.70;99.90;;;;;;5099656;27;19953;-85
2023/05/18 04:34:12;;;;;;;;;;;5.60;99.90;;;;;;5104799;27;19934;-85
2023/05/18 04:36:38;;;;;;;;;;;5.60;99.90;;;;;;5089565;27;19923;-85
2023/05/18 04:39:06;;;;;;;;;;;5.70;99.90;;;;;;5089362;27;19927;-86
2023/05/18 04:41:33;;;;;;;;;;;5.90;99.90;;;;;;5105969;27;19931;-86
2023/05/18 04:43:59;;;;;;;;;;;6.10;99.90;;;;;;5106317;27;19923;-86
2023/05/18 04:46:25;;;;;;;;;;;6.00;99.90;;;;;;5103906;27;19934;-86
2023/05/18 04:48:52;;;;;;;;;;;6.10;99.90;;;;;;5088788;27;19953;-87
2023/05/18 04:51:20;;;;;;;;;;;6.10;99.90;;;;;;5105147;27;19949;-85
2023/05/18 04:53:48;;;;;;;;;;;6.20;99.90;;;;;;5105412;27;19928;-86
2023/05/18 04:56:17;;;;;;;;;;;6.20;99.90;;;;;;5104897;27;19924;-86
2023/05/18 04:58:47;;;;;;;;;;;6.40;99.90;;;;;;5102389;27;19928;-85
2023/05/18 05:01:14;;;;;;;;;;;6.40;99.90;;;;;;5106136;27;20299;-85
2023/05/18 05:03:43;;;;;;;;;;;6.60;99.90;;;;;;5088203;27;19931;-86
2023/05/18 05:06:09;;;;;;;;;;;6.70;99.90;;;;;;5101967;27;19934;-85
2023/05/18 05:08:35;;;;;;;;;;;6.80;99.90;;;;;;5104997;27;19936;-86
2023/05/18 05:11:00;;;;;;;;;;;6.80;99.90;;;;;;5103779;27;19939;-85
2023/05/18 05:13:26;;;;;;;;;;;6.90;99.90;;;;;;5104186;27;19924;-84
2023/05/18 05:15:52;;;;;;;;;;;6.90;99.90;;;;;;5105868;27;19927;-85
2023/05/18 05:18:17;;;;;;;;;;;6.90;99.90;;;;;;5106657;27;19927;-85
2023/05/18 05:20:43;;;;;;;;;;;6.90;99.90;;;;;;5107001;27;20019;-85
2023/05/18 05:23:08;;;;;;;;;;;7.00;99.90;;;;;;5106152;27;19938;-85
2023/05/18 05:25:34;;;;;;;;;;;7.10;99.90;;;;;;5101434;27;20015;-85
2023/05/18 05:28:00;;;;;;;;;;;7.30;99.90;;;;;;5103284;27;19934;-85
2023/05/18 05:30:25;;;;;;;;;;;7.30;99.90;;;;;;5104854;27;20333;-85
2023/05/18 05:32:51;;;;;;;;;;;7.50;99.90;;;;;;5106276;27;19928;-86
2023/05/18 05:35:16;;;;;;;;;;;7.50;99.90;;;;;;5101686;27;19931;-85
2023/05/18 05:37:42;;;;;;;;;;;7.60;99.90;;;;;;5104031;27;19927;-84
2023/05/18 05:40:08;;;;;;;;;;;7.60;99.90;;;;;;5105654;27;20018;-85
2023/05/18 05:42:34;;;;;;;;;;;7.80;99.90;;;;;;5105485;27;20669;-85
2023/05/18 05:45:00;;;;;;;;;;;7.90;99.90;;;;;;5104838;27;19940;-84
2023/05/18 05:47:26;;;;;;;;;;;8.10;99.90;;;;;;5088072;27;19927;-86
2023/05/18 05:49:51;;;;;;;;;;;8.20;99.90;;;;;;5103745;27;19943;-85
2023/05/18 05:52:17;;;;;;;;;;;8.30;99.90;;;;;;5103658;27;20065;-84
2023/05/18 05:54:42;;;;;;;;;;;8.30;99.90;;;;;;5083820;28;19935;-86
2023/05/18 05:57:08;;;;;;;;;;;8.30;99.90;;;;;;5104848;28;19924;-84
2023/05/18 05:59:33;;;;;;;;;;;8.60;99.90;;;;;;5100647;27;19943;-84
2023/05/18 06:01:59;;;;;;;;;;;8.70;99.90;;;;;;5103576;27;19935;-85
2023/05/18 06:04:24;;;;;;;;;;;8.90;99.90;;;;;;5105495;27;19928;-86
2023/05/18 06:06:50;;;;;;;;;;;8.90;99.90;;;;;;5103339;28;19924;-85
2023/05/18 06:09:16;;;;;;;;;;;9.00;99.90;;;;;;5102061;27;19931;-85
2023/05/18 06:11:41;;;;;;;;;;;8.90;99.90;;;;;;5105957;28;19950;-84
2023/05/18 06:14:07;;;;;;;;;;;8.90;99.90;;;;;;5104234;27;20018;-85
2023/05/18 06:16:32;;;;;;;;;;;9.10;99.90;;;;;;5104945;27;19988;-84
2023/05/18 06:18:58;;;;;;;;;;;9.20;99.90;;;;;;5105330;28;19924;-85
2023/05/18 06:21:23;;;;;;;;;;;9.20;99.90;;;;;;5101324;28;19998;-86
2023/05/18 06:23:49;;;;;;;;;;;9.30;99.90;;;;;;5105887;28;19927;-86
2023/05/18 06:26:15;;;;;;;;;;;9.30;99.90;;;;;;5105360;28;19934;-85
2023/05/18 06:28:41;;;;;;;;;;;9.40;99.90;;;;;;5088479;28;20513;-85
2023/05/18 06:31:06;;;;;;;;;;;9.30;99.90;;;;;;5105089;28;20011;-84
2023/05/18 06:33:33;;;;;;;;;;;9.40;99.90;;;;;;5102924;28;20280;-85
2023/05/18 06:35:58;;;;;;;;;;;9.90;99.90;;;;;;5103788;28;19930;-84
2023/05/18 06:38:24;;;;;;;;;;;10.30;99.90;;;;;;5101762;28;20300;-86
2023/05/18 06:40:50;;;;;;;;;;;10.30;99.90;;;;;;5102669;28;20022;-84
2023/05/18 06:43:15;;;;;;;;;;;9.80;99.90;;;;;;5103642;28;19935;-83
2023/05/18 06:45:41;;;;;;;;;;;9.90;99.90;;;;;;5103563;28;19924;-85
2023/05/18 06:48:06;;;;;;;;;;;10.00;99.90;;;;;;5106022;28;19935;-87
2023/05/18 06:50:32;;;;;;;;;;;10.20;99.90;;;;;;5104020;28;19923;-86
2023/05/18 06:52:57;;;;;;;;;;;10.40;99.90;;;;;;5103360;28;19963;-86
2023/05/18 06:55:23;;;;;;;;;;;10.30;99.90;;;;;;5104591;27;19981;-85
2023/05/18 06:57:48;;;;;;;;;;;10.30;99.90;;;;;;5105849;28;20014;-85
2023/05/18 07:00:15;;;;;;;;;;;10.60;99.90;;;;;;5103197;28;20456;-89
2023/05/18 07:02:43;;;;;;;;;;;10.30;99.90;;;;;;5099521;27;20405;-86
2023/05/18 07:05:08;;;;;;;;;;;10.20;99.90;;;;;;5100328;28;19938;-90
2023/05/18 07:07:35;;;;;;;;;;;10.50;99.90;;;;;;5104879;27;19931;-87
2023/05/18 07:10:01;;;;;;;;;;;10.80;99.90;;;;;;5110279;27;19934;-89
2023/05/18 07:12:27;;;;;;;;;;;10.90;99.90;;;;;;5104712;27;19924;-87
2023/05/18 07:14:52;;;;;;;;;;;10.90;99.90;;;;;;5101835;27;19988;-87
2023/05/18 07:17:18;;;;;;;;;;;10.80;99.90;;;;;;5101156;27;20018;-87
2023/05/18 07:19:43;;;;;;;;;;;10.80;99.90;;;;;;5103531;27;19967;-86
2023/05/18 07:22:09;;;;;;;;;;;10.40;99.90;;;;;;5105926;27;19997;-87
2023/05/18 07:24:35;;;;;;;;;;;10.40;99.90;;;;;;5103101;27;20201;-89
2023/05/18 07:27:00;;;;;;;;;;;10.20;99.90;;;;;;5089316;27;20014;-86
2023/05/18 07:29:26;;;;;;;;;;;10.50;99.90;;;;;;5102856;27;19927;-86
2023/05/18 07:31:51;;;;;;;;;;;10.50;99.90;;;;;;5102870;27;19932;-88
2023/05/18 07:34:17;;;;;;;;;;;10.70;99.90;;;;;;5099028;27;19939;-87
2023/05/18 07:36:42;;;;;;;;;;;10.90;99.90;;;;;;5103797;27;20312;-88
2023/05/18 07:39:16;;;;;;;;;;;10.70;99.90;;;;;;5103275;27;19942;-86
2023/05/18 07:41:41;;;;;;;;;;;10.80;99.90;;;;;;5105238;27;20030;-85
2023/05/18 07:44:07;;;;;;;;;;;10.90;99.90;;;;;;5103588;27;20022;-88
2023/05/18 07:46:33;;;;;;;;;;;10.90;99.90;;;;;;5088683;27;19927;-88
2023/05/18 07:48:59;;;;;;;;;;;11.00;99.90;;;;;;5104920;27;19934;-86
2023/05/18 07:51:24;;;;;;;;;;;10.70;99.90;;;;;;5097170;27;19927;-86
2023/05/18 07:53:50;;;;;;;;;;;10.60;99.90;;;;;;5105218;27;20351;-86
2023/05/18 07:56:16;;;;;;;;;;;10.90;99.90;;;;;;5101514;27;20091;-90
2023/05/18 07:58:43;;;;;;;;;;;11.00;99.90;;;;;;5100002;27;19927;-86
2023/05/18 08:01:08;;;;;;;;;;;10.80;99.90;;;;;;5102178;27;20265;-86
2023/05/18 08:03:34;;;;;;;;;;;10.90;99.90;;;;;;5097870;27;19935;-88
2023/05/18 08:06:00;;;;;;;;;;;11.20;99.90;;;;;;5097703;27;19927;-86
2023/05/18 08:08:26;;;;;;;;;;;11.20;99.90;;;;;;5080754;27;19924;-87
2023/05/18 08:10:52;;;;;;;;;;;11.30;99.90;;;;;;5087181;27;19965;-86
2023/05/18 08:13:17;;;;;;;;;;;10.80;99.90;;;;;;5100820;27;19924;-86
2023/05/18 08:15:43;;;;;;;;;;;10.90;99.90;;;;;;5087994;27;19928;-84
2023/05/18 08:18:08;;;;;;;;;;;11.30;99.90;;;;;;5102825;27;19988;-85
2023/05/18 08:20:34;;;;;;;;;;;10.90;99.90;;;;;;5104039;28;19928;-85
2023/05/18 08:23:00;;;;;;;;;;;11.90;99.90;;;;;;5119907;27;19935;-89
2023/05/18 08:25:25;;;;;;;;;;;12.90;99.90;;;;;;5084391;27;20388;-86
2023/05/18 08:27:51;;;;;;;;;;;13.10;99.90;;;;;;5104740;27;19927;-85
2023/05/18 08:30:20;;;;;;;;;;;12.50;99.90;;;;;;5103080;27;19958;-84
2023/05/18 08:32:48;;;;;;;;;;;11.80;99.90;;;;;;5101235;27;19928;-85
2023/05/18 08:35:14;;;;;;;;;;;11.10;99.90;;;;;;5104292;27;19924;-86
2023/05/18 08:37:39;;;;;;;;;;;11.60;99.90;;;;;;5103508;27;19935;-86
2023/05/18 08:40:10;;;;;;;;;;;11.90;99.90;;;;;;5100317;27;19935;-85
2023/05/18 08:42:41;;;;;;;;;;;12.20;99.90;;;;;;5099143;27;19954;-80
2023/05/18 08:45:12;;;;;;;;;;;12.20;99.90;;;;;;5122121;27;19924;-85
2023/05/18 08:47:39;;;;;;;;;;;12.30;99.90;;;;;;5104839;27;19935;-86
2023/05/18 08:50:05;;;;;;;;;;;12.00;99.90;;;;;;5087070;27;19927;-86
2023/05/18 08:52:34;;;;;;;;;;;12.70;99.90;;;;;;5087202;27;19974;-88
2023/05/18 08:55:02;;;;;;;;;;;13.00;99.90;;;;;;5103514;27;20006;-86
2023/05/18 08:57:29;;;;;;;;;;;13.20;99.90;;;;;;5099766;27;20019;-85
2023/05/18 08:59:55;;;;;;;;;;;12.30;99.90;;;;;;5105040;27;20444;-83
2023/05/18 09:02:21;;;;;;;;;;;12.20;99.90;;;;;;5093466;27;19927;-86
2023/05/18 09:04:47;;;;;;;;;;;13.10;99.90;;;;;;5101862;27;19927;-85
2023/05/18 09:07:12;;;;;;;;;;;13.30;99.90;;;;;;5098179;27;19937;-83
2023/05/18 09:09:39;;;;;;;;;;;13.70;99.90;;;;;;5117155;27;19963;-84
2023/05/18 09:12:05;;;;;;;;;;;14.70;99.90;;;;;;5106990;27;19967;-83
2023/05/18 09:14:31;;;;;;;;;;;13.60;99.90;;;;;;5095366;27;19975;-83
2023/05/18 09:16:56;;;;;;;;;;;13.10;99.90;;;;;;5100585;27;19923;-82
2023/05/18 09:19:23;;;;;;;;;;;13.70;99.90;;;;;;5099741;28;20392;-84
2023/05/18 09:21:49;;;;;;;;;;;13.80;99.90;;;;;;5082423;27;19927;-86
2023/05/18 09:24:14;;;;;;;;;;;14.00;99.90;;;;;;5096995;28;19965;-81
2023/05/18 09:26:40;;;;;;;;;;;14.50;99.90;;;;;;5099810;27;20711;-88
2023/05/18 09:29:16;;;;;;;;;;;15.10;99.90;;;;;;5101945;27;20374;-85
2023/05/18 09:31:41;;;;;;;;;;;13.10;99.90;;;;;;5100306;27;19984;-84
2023/05/18 09:34:07;;;;;;;;;;;13.60;99.90;;;;;;5082478;27;20525;-85
2023/05/18 09:36:33;;;;;;;;;;;13.50;99.90;;;;;;5098030;27;19934;-89
2023/05/18 09:38:59;;;;;;;;;;;13.50;99.90;;;;;;5084188;27;20259;-85
2023/05/18 09:41:25;;;;;;;;;;;14.60;99.90;;;;;;5099485;27;19927;-88
2023/05/18 09:43:51;;;;;;;;;;;14.00;99.90;;;;;;5083413;27;19928;-87
2023/05/18 09:46:17;;;;;;;;;;;14.50;99.90;;;;;;5082866;27;19930;-86
2023/05/18 09:48:45;;;;;;;;;;;15.10;99.90;;;;;;5098051;27;19982;-85
2023/05/18 09:51:16;;;;;;;;;;;14.40;99.90;;;;;;5098904;27;20336;-84
2023/05/18 09:53:42;;;;;;;;;;;14.90;99.90;;;;;;5100387;27;19932;-85
2023/05/18 09:56:11;;;;;;;;;;;15.30;99.90;;;;;;5101893;27;19930;-84
2023/05/18 09:58:38;;;;;;;;;;;14.70;99.90;;;;;;5117115;27;19938;-88
2023/05/18 10:01:04;;;;;;;;;;;14.40;99.90;;;;;;5084250;27;19934;-86
2023/05/18 10:03:35;;;;;;;;;;;14.40;99.90;;;;;;5098841;28;19931;-92
2023/05/18 10:06:05;;;;;;;;;;;15.10;99.90;;;;;;5083965;28;20397;-87
2023/05/18 10:08:31;;;;;;;;;;;15.70;99.90;;;;;;5102139;28;19956;-85
2023/05/18 10:10:57;;;;;;;;;;;16.40;99.90;;;;;;5103590;27;19939;-86
2023/05/18 10:13:24;;;;;;;;;;;15.80;99.90;;;;;;5099693;28;19923;-83
2023/05/18 10:15:52;;;;;;;;;;;15.10;99.90;;;;;;5117325;27;20307;-86
2023/05/18 10:18:25;;;;;;;;;;;14.50;99.90;;;;;;5102576;28;20391;-85
2023/05/18 10:20:52;;;;;;;;;;;14.80;99.90;;;;;;5098061;28;19924;-87
2023/05/18 10:23:18;;;;;;;;;;;15.20;99.90;;;;;;5100082;28;19927;-85
2023/05/18 10:25:44;;;;;;;;;;;15.10;99.90;;;;;;5095409;28;20374;-88
2023/05/18 10:28:10;;;;;;;;;;;15.90;99.90;;;;;;5096411;28;20088;-84
2023/05/18 10:30:36;;;;;;;;;;;14.80;99.90;;;;;;5097054;28;20392;-86
2023/05/18 10:33:03;;;;;;;;;;;14.80;99.90;;;;;;5096842;28;20374;-86
2023/05/18 10:35:29;;;;;;;;;;;15.40;99.90;;;;;;5095483;28;19931;-83
2023/05/18 10:37:56;;;;;;;;;;;15.50;99.90;;;;;;5112891;28;20400;-90
2023/05/18 10:40:23;;;;;;;;;;;15.40;99.90;;;;;;5079603;28;20396;-85
2023/05/18 10:42:49;;;;;;;;;;;15.40;99.90;;;;;;5085925;27;20408;-84
2023/05/18 10:45:15;;;;;;;;;;;15.20;99.90;;;;;;5082194;27;19969;-83
2023/05/18 10:47:42;;;;;;;;;;;15.40;99.90;;;;;;5101001;27;19931;-87
2023/05/18 10:50:08;;;;;;;;;;;14.80;99.90;;;;;;5105074;27;19927;-86
2023/05/18 10:52:35;;;;;;;;;;;16.30;99.90;;;;;;5108912;27;20129;-86
2023/05/18 10:55:01;;;;;;;;;;;16.40;99.90;;;;;;5105507;27;20001;-90
2023/05/18 10:57:38;;;;;;;;;;;16.60;99.90;;;;;;5109170;27;19931;-87
2023/05/18 11:00:08;;;;;;;;;;;16.90;99.90;;;;;;5092591;27;19935;-85
2023/05/18 11:02:34;;;;;;;;;;;16.60;99.10;;;;;;5091264;27;19927;-86
2023/05/18 11:05:03;;;;;;;;;;;16.00;99.90;;;;;;5107288;27;20444;-88
2023/05/18 11:07:32;;;;;;;;;;;16.20;99.90;;;;;;5085242;27;20379;-87
2023/05/18 11:09:59;;;;;;;;;;;15.30;99.90;;;;;;5107106;27;20392;-81
2023/05/18 11:12:25;;;;;;;;;;;15.40;99.90;;;;;;5103118;27;20022;-83
2023/05/18 11:14:52;;;;;;;;;;;15.70;99.90;;;;;;5105515;27;20022;-85
2023/05/18 11:17:19;;;;;;;;;;;16.00;99.90;;;;;;5102673;27;20438;-84
2023/05/18 11:20:08;;;;;;;;;;;15.20;99.90;;;;;;5101983;27;21468;-82
2023/05/18 11:22:41;;;;;;;;;;;15.70;99.90;;;;;;5101649;28;20383;-83
2023/05/18 11:25:29;;;;;;;;;;;15.20;99.90;;;;;;5102419;27;19927;-83
2023/05/18 11:28:04;;;;;;;;;;;15.30;99.90;;;;;;5104458;27;20347;-84
2023/05/18 11:30:45;;;;;;;;;;;16.20;99.90;;;;;;5102927;27;20015;-86
2023/05/18 11:33:12;;;;;;;;;;;16.20;99.90;;;;;;5088879;27;19967;-87
2023/05/18 11:35:56;;;;;;;;;;;16.60;99.90;;;;;;5082691;27;19967;-85
2023/05/18 11:38:22;;;;;;;;;;;15.10;99.00;;;;;;5101111;27;19934;-84
2023/05/18 11:40:48;;;;;;;;;;;15.20;98.80;;;;;;5106696;27;19928;-84
2023/05/18 11:43:21;;;;;;;;;;;15.50;99.90;;;;;;5108305;27;19928;-82
2023/05/18 11:45:54;;;;;;;;;;;15.90;99.90;;;;;;5102226;27;19975;-84
2023/05/18 11:48:23;;;;;;;;;;;14.80;99.90;;;;;;5088844;27;19978;-85
2023/05/18 11:50:51;;;;;;;;;;;15.30;99.90;;;;;;5106070;27;20019;-88
2023/05/18 11:53:17;;;;;;;;;;;16.40;99.90;;;;;;5100818;27;19931;-86
2023/05/18 11:55:42;;;;;;;;;;;16.30;99.90;;;;;;5098176;27;19952;-84
2023/05/18 11:58:09;;;;;;;;;;;16.40;99.90;;;;;;5080116;27;20010;-84
2023/05/18 12:00:35;;;;;;;;;;;16.60;99.90;;;;;;5102252;27;19928;-83
2023/05/18 12:03:01;;;;;;;;;;;16.20;99.90;;;;;;5099972;27;19928;-88
2023/05/18 12:05:30;;;;;;;;;;;16.40;99.90;;;;;;5099479;27;19927;-84
2023/05/18 12:07:56;;;;;;;;;;;16.20;99.90;;;;;;5078747;27;19977;-85
2023/05/18 12:10:22;;;;;;;;;;;16.40;99.90;;;;;;5095095;27;19972;-82
2023/05/18 12:12:50;;;;;;;;;;;16.10;99.90;;;;;;5078852;27;19927;-85
2023/05/18 12:15:19;;;;;;;;;;;16.10;99.00;;;;;;5098243;27;19930;-83
2023/05/18 12:17:46;;;;;;;;;;;16.40;99.70;;;;;;5097045;27;20014;-84
2023/05/18 12:20:12;;;;;;;;;;;16.40;99.90;;;;;;5099392;27;19927;-86
2023/05/18 12:22:54;;;;;;;;;;;16.40;99.70;;;;;;5100293;27;19932;-84
2023/05/18 12:25:22;;;;;;;;;;;17.50;99.90;;;;;;5093228;27;19981;-87
2023/05/18 12:27:47;;;;;;;;;;;17.30;99.90;;;;;;5092811;27;19946;-83
2023/05/18 12:30:20;;;;;;;;;;;16.00;97.30;;;;;;5084834;27;19927;-83
2023/05/18 12:32:47;;;;;;;;;;;16.30;98.30;;;;;;5100139;27;19928;-85
2023/05/18 12:35:12;;;;;;;;;;;16.50;96.50;;;;;;5100545;27;19992;-82
2023/05/18 12:37:42;;;;;;;;;;;16.90;98.90;;;;;;5099796;27;19967;-86
2023/05/18 12:40:08;;;;;;;;;;;17.40;99.80;;;;;;5082611;27;19968;-86
2023/05/18 12:42:34;;;;;;;;;;;17.40;99.50;;;;;;5078995;27;19942;-83
2023/05/18 12:44:59;;;;;;;;;;;17.10;99.90;;;;;;5106537;27;19931;-83
2023/05/18 12:47:26;;;;;;;;;;;17.40;99.90;;;;;;5102745;27;20341;-84
2023/05/18 12:49:51;;;;;;;;;;;17.00;98.10;;;;;;5099869;27;20590;-83
2023/05/18 12:52:20;;;;;;;;;;;16.50;95.70;;;;;;5099175;27;19959;-83
2023/05/18 12:54:54;;;;;;;;;;;17.30;99.40;;;;;;5116495;27;19927;-83
2023/05/18 12:57:25;;;;;;;;;;;16.70;97.40;;;;;;5098920;27;19935;-83
2023/05/18 12:59:54;;;;;;;;;;;16.20;97.90;;;;;;5100518;27;19927;-85
2023/05/18 13:02:34;;;;;;;;;;;16.50;99.10;;;;;;5100724;27;19952;-82
2023/05/18 13:05:09;;;;;;;;;;;16.30;98.80;;;;;;5099186;27;19931;-82
2023/05/18 13:07:35;;;;;;;;;;;15.70;97.20;;;;;;5100742;27;19963;-85
2023/05/18 13:10:03;;;;;;;;;;;16.50;99.90;;;;;;5098483;27;19976;-84
2023/05/18 13:12:41;;;;;;;;;;;16.50;97.30;;;;;;5096004;27;20345;-83
2023/05/18 13:15:14;;;;;;;;;;;16.70;99.90;;;;;;5097056;27;19935;-86
2023/05/18 13:17:58;;;;;;;;;;;17.30;99.40;;;;;;5104670;27;20064;-83
2023/05/18 13:20:43;;;;;;;;;;;17.40;98.60;;;;;;5099294;27;19949;-83
2023/05/18 13:23:11;;;;;;;;;;;17.30;98.90;;;;;;5101382;27;19924;-85
2023/05/18 13:25:37;;;;;;;;;;;16.90;94.60;;;;;;5099491;27;20022;-83
2023/05/18 13:28:02;;;;;;;;;;;16.50;94.40;;;;;;5124561;27;20033;-83
2023/05/18 13:30:28;;;;;;;;;;;17.30;99.10;;;;;;5082411;27;19985;-81
2023/05/18 13:32:53;;;;;;;;;;;16.30;97.30;;;;;;5101505;27;19948;-81
2023/05/18 13:35:19;;;;;;;;;;;17.50;99.40;;;;;;5101436;27;20447;-85
2023/05/18 13:37:47;;;;;;;;;;;17.20;99.20;;;;;;5082118;27;19927;-84
2023/05/18 13:40:16;;;;;;;;;;;17.50;96.80;;;;;;5118202;27;20400;-84
2023/05/18 13:42:42;;;;;;;;;;;17.40;97.00;;;;;;5102526;27;19923;-82
2023/05/18 13:45:08;;;;;;;;;;;17.40;95.20;;;;;;5104033;27;20035;-84
2023/05/18 13:47:34;;;;;;;;;;;16.50;95.10;;;;;;5101909;27;20733;-86
2023/05/18 13:50:00;;;;;;;;;;;17.00;97.00;;;;;;5101317;27;19971;-84
2023/05/18 13:52:25;;;;;;;;;;;16.80;94.90;;;;;;5100349;27;20441;-85
2023/05/18 13:54:51;;;;;;;;;;;17.40;97.90;;;;;;5101115;27;19927;-83
2023/05/18 13:57:22;;;;;;;;;;;16.70;94.80;;;;;;5122403;27;19931;-83
2023/05/18 13:59:47;;;;;;;;;;;16.60;95.50;;;;;;5099687;27;19966;-83
2023/05/18 14:02:13;;;;;;;;;;;17.00;97.00;;;;;;5105263;27;20038;-83
2023/05/18 14:04:38;;;;;;;;;;;18.00;98.40;;;;;;5102215;28;19924;-85
2023/05/18 14:07:04;;;;;;;;;;;16.90;94.40;;;;;;5098239;27;19937;-86
2023/05/18 14:09:29;;;;;;;;;;;17.20;97.10;;;;;;5099320;27;20010;-84
2023/05/18 14:11:56;;;;;;;;;;;17.10;98.00;;;;;;5100895;27;19971;-83
2023/05/18 14:14:22;;;;;;;;;;;17.40;97.10;;;;;;5099119;27;20269;-83
2023/05/18 14:16:48;;;;;;;;;;;17.10;97.20;;;;;;5104001;28;19929;-83
2023/05/18 14:19:13;;;;;;;;;;;17.50;99.90;;;;;;5099663;28;20639;-85
2023/05/18 14:21:39;;;;;;;;;;;16.90;95.80;;;;;;5096772;28;19938;-85
2023/05/18 14:24:06;;;;;;;;;;;17.10;97.20;;;;;;5101770;27;19962;-84